createdAt,value
2023-05-06T00:01:38.328Z,4.38
2023-05-06T00:04:41.109Z,4.53
2023-05-06T00:07:43.555Z,4.44
2023-05-06T00:10:46.053Z,4.44
2023-05-06T00:13:48.657Z,4.53
2023-05-06T00:16:51.203Z,4.38
2023-05-06T00:19:53.751Z,4.33
2023-05-06T00:22:56.444Z,4.31
2023-05-06T00:25:58.782Z,4.33
2023-05-06T00:29:01.140Z,4.14
2023-05-06T00:32:03.544Z,4.14
2023-05-06T00:35:06.925Z,4.30
2023-05-06T00:38:09.402Z,4.24
2023-05-06T00:41:11.816Z,4.29
2023-05-06T00:44:14.286Z,4.13
2023-05-06T00:47:16.823Z,4.13
2023-05-06T00:50:19.734Z,4.26
2023-05-06T00:53:22.270Z,4.22
2023-05-06T00:56:24.641Z,4.29
2023-05-06T00:59:27.092Z,4.16
2023-05-06T01:02:43.428Z,4.25
2023-05-06T01:06:03.588Z,4.18
2023-05-06T01:09:15.830Z,4.15
2023-05-06T01:12:35.143Z,4.12
2023-05-06T01:15:43.408Z,4.06
2023-05-06T01:18:46.645Z,3.95
2023-05-06T01:21:51.729Z,3.74
2023-05-06T01:24:54.057Z,3.88
2023-05-06T01:27:57.422Z,3.86
2023-05-06T01:31:09.394Z,3.99
2023-05-06T01:34:27.335Z,4.02
2023-05-06T01:37:34.237Z,3.88
2023-05-06T01:40:36.964Z,3.69
2023-05-06T01:43:42.685Z,3.92
2023-05-06T01:46:46.169Z,3.72
2023-05-06T01:49:48.620Z,3.94
2023-05-06T01:52:59.364Z,3.91
2023-05-06T01:56:01.673Z,3.96
2023-05-06T01:59:04.052Z,3.93
2023-05-06T02:02:06.926Z,3.78
2023-05-06T02:05:09.820Z,3.94
2023-05-06T02:08:18.236Z,3.76
2023-05-06T02:11:21.302Z,3.61
2023-05-06T02:14:27.146Z,3.66
2023-05-06T02:17:30.630Z,3.75
2023-05-06T02:20:33.082Z,3.63
2023-05-06T02:23:35.672Z,3.85
2023-05-06T02:26:37.985Z,3.78
2023-05-06T02:29:40.387Z,3.79
2023-05-06T02:32:42.953Z,3.78
2023-05-06T02:35:45.438Z,3.73
2023-05-06T02:38:47.756Z,3.75
2023-05-06T02:41:50.086Z,3.67
2023-05-06T02:44:53.900Z,3.75
2023-05-06T02:47:56.357Z,3.70
2023-05-06T02:50:58.677Z,3.75
2023-05-06T02:54:01.138Z,3.68
2023-05-06T02:57:03.477Z,3.89
2023-05-06T03:00:06.722Z,3.97
2023-05-06T03:03:10.119Z,3.98
2023-05-06T03:06:12.495Z,3.87
2023-05-06T03:09:15.520Z,3.83
2023-05-06T03:12:18.134Z,3.88
2023-05-06T03:15:20.581Z,4.13
2023-05-06T03:18:23.219Z,3.95
2023-05-06T03:21:26.401Z,4.06
2023-05-06T03:24:29.121Z,4.13
2023-05-06T03:27:31.772Z,4.29
2023-05-06T03:30:40.600Z,4.58
2023-05-06T03:33:43.682Z,4.50
2023-05-06T03:36:47.471Z,4.25
2023-05-06T03:39:50.873Z,4.21
2023-05-06T03:42:55.221Z,4.22
2023-05-06T03:45:59.294Z,3.96
2023-05-06T03:49:02.970Z,4.19
2023-05-06T03:52:05.981Z,4.16
2023-05-06T03:55:09.066Z,4.20
2023-05-06T03:58:13.210Z,4.19
2023-05-06T04:01:18.327Z,4.24
2023-05-06T04:04:21.112Z,4.27
2023-05-06T04:07:23.604Z,4.28
2023-05-06T04:10:26.460Z,4.31
2023-05-06T04:13:34.436Z,4.35
2023-05-06T04:16:40.978Z,4.37
2023-05-06T04:19:43.931Z,4.33
2023-05-06T04:22:46.385Z,4.30
2023-05-06T04:25:49.304Z,4.08
2023-05-06T04:28:53.845Z,4.40
2023-05-06T04:31:57.668Z,4.44
2023-05-06T04:35:02.869Z,4.34
2023-05-06T04:38:06.253Z,4.56
2023-05-06T04:41:10.164Z,4.61
2023-05-06T04:44:12.838Z,4.60
2023-05-06T04:47:17.934Z,4.62
2023-05-06T04:50:24.031Z,4.79
2023-05-06T04:53:27.906Z,4.70
2023-05-06T04:56:30.313Z,4.77
2023-05-06T04:59:32.564Z,4.74
2023-05-06T05:02:37.105Z,4.79
2023-05-06T05:05:40.627Z,4.83
2023-05-06T05:08:50.042Z,4.64
2023-05-06T05:11:53.508Z,4.85
2023-05-06T05:14:55.766Z,4.86
2023-05-06T05:17:58.932Z,4.92
2023-05-06T05:21:01.975Z,4.81
2023-05-06T05:24:05.402Z,4.94
2023-05-06T05:27:07.869Z,4.92
2023-05-06T05:30:11.761Z,5.23
2023-05-06T05:33:15.244Z,5.09
2023-05-06T05:36:18.823Z,5.30
2023-05-06T05:39:23.574Z,5.59
2023-05-06T05:42:25.927Z,5.45
2023-05-06T05:45:28.556Z,5.54
2023-05-06T05:48:32.883Z,5.65
2023-05-06T05:51:37.169Z,5.68
2023-05-06T05:54:41.134Z,5.59
2023-05-06T05:57:43.533Z,5.44
2023-05-06T06:00:46.404Z,5.81
2023-05-06T06:03:52.575Z,5.96
2023-05-06T06:07:01.881Z,5.70
2023-05-06T06:10:07.356Z,5.70
2023-05-06T06:13:09.758Z,5.82
2023-05-06T06:16:12.796Z,5.84
2023-05-06T06:19:15.995Z,5.96
2023-05-06T06:22:19.002Z,5.81
2023-05-06T06:25:22.236Z,5.92
2023-05-06T06:28:24.714Z,6.08
2023-05-06T06:31:27.188Z,5.90
2023-05-06T06:34:29.689Z,5.91
2023-05-06T06:37:32.295Z,5.92
2023-05-06T06:40:34.606Z,6.02
2023-05-06T06:43:37.053Z,6.14
2023-05-06T06:46:52.000Z,6.08
2023-05-06T06:49:54.485Z,6.25
2023-05-06T06:52:56.822Z,6.25
2023-05-06T06:55:59.198Z,6.18
2023-05-06T06:59:01.572Z,6.30
2023-05-06T07:02:04.141Z,6.61
2023-05-06T07:05:06.975Z,6.76
2023-05-06T07:08:09.377Z,6.87
2023-05-06T07:11:14.389Z,6.83
2023-05-06T07:14:16.824Z,7.08
2023-05-06T07:17:19.417Z,7.07
2023-05-06T07:20:21.883Z,7.10
2023-05-06T07:23:24.201Z,7.25
2023-05-06T07:26:26.564Z,7.28
2023-05-06T07:29:29.159Z,7.33
2023-05-06T07:32:31.680Z,7.73
2023-05-06T07:35:34.189Z,7.82
2023-05-06T07:38:36.701Z,7.65
2023-05-06T07:41:39.141Z,7.92
2023-05-06T07:44:41.619Z,8.06
2023-05-06T07:47:44.058Z,8.32
2023-05-06T07:50:46.543Z,8.43
2023-05-06T07:53:48.967Z,8.50
2023-05-06T07:56:51.446Z,8.21
2023-05-06T07:59:53.946Z,8.21
2023-05-06T08:02:56.400Z,8.31
2023-05-06T08:05:59.109Z,8.38
2023-05-06T08:09:01.504Z,8.33
2023-05-06T08:12:04.113Z,8.43
2023-05-06T08:15:07.135Z,8.68
2023-05-06T08:18:20.728Z,8.53
2023-05-06T08:21:24.472Z,8.57
2023-05-06T08:24:27.003Z,8.73
2023-05-06T08:27:29.320Z,8.85
2023-05-06T08:30:31.744Z,8.97
2023-05-06T08:33:34.068Z,9.04
2023-05-06T08:36:36.458Z,8.98
2023-05-06T08:39:38.841Z,8.90
2023-05-06T08:42:41.160Z,9.10
2023-05-06T08:45:43.678Z,9.46
2023-05-06T08:48:46.305Z,9.45
2023-05-06T08:51:50.646Z,9.54
2023-05-06T08:54:54.662Z,9.64
2023-05-06T08:57:58.041Z,9.96
2023-05-06T09:01:01.103Z,9.74
2023-05-06T09:04:04.142Z,10.02
2023-05-06T09:07:06.782Z,10.20
2023-05-06T09:10:15.633Z,10.55
2023-05-06T09:13:19.738Z,10.57
2023-05-06T09:16:29.719Z,10.15
2023-05-06T09:19:32.062Z,10.45
2023-05-06T09:22:34.505Z,10.34
2023-05-06T09:25:37.765Z,9.97
2023-05-06T09:28:40.279Z,10.52
2023-05-06T09:31:45.011Z,10.82
2023-05-06T09:34:49.520Z,11.17
2023-05-06T09:37:52.337Z,10.62
2023-05-06T09:40:54.721Z,10.77
2023-05-06T09:43:58.078Z,10.83
2023-05-06T09:47:00.620Z,10.78
2023-05-06T09:50:03.698Z,10.93
2023-05-06T09:53:06.406Z,10.89
2023-05-06T09:56:09.325Z,10.64
2023-05-06T09:59:11.957Z,10.45
2023-05-06T10:02:14.559Z,10.41
2023-05-06T10:05:17.401Z,10.32
2023-05-06T10:08:20.287Z,10.04
2023-05-06T10:11:23.288Z,10.13
2023-05-06T10:14:26.084Z,10.27
2023-05-06T10:17:29.361Z,10.40
2023-05-06T10:20:32.304Z,10.53
2023-05-06T10:23:50.966Z,10.76
2023-05-06T10:26:55.731Z,10.60
2023-05-06T10:30:00.459Z,10.54
2023-05-06T10:33:08.268Z,10.87
2023-05-06T10:36:23.898Z,10.99
2023-05-06T10:39:27.017Z,11.13
2023-05-06T10:42:35.481Z,11.05
2023-05-06T10:46:09.400Z,11.70
2023-05-06T10:49:12.457Z,11.56
2023-05-06T10:52:18.790Z,11.25
2023-05-06T10:55:35.512Z,11.77
2023-05-06T10:58:41.215Z,11.96
2023-05-06T11:01:44.640Z,11.36
2023-05-06T11:04:53.401Z,11.66
2023-05-06T11:08:09.795Z,11.49
2023-05-06T11:11:47.110Z,11.39
2023-05-06T11:14:50.026Z,11.63
2023-05-06T11:17:54.631Z,11.57
2023-05-06T11:21:03.603Z,11.46
2023-05-06T11:24:05.993Z,11.29
2023-05-06T11:27:09.876Z,11.29
2023-05-06T11:30:15.401Z,11.25
2023-05-06T11:33:22.318Z,11.11
2023-05-06T11:36:24.640Z,11.13
2023-05-06T11:39:30.999Z,11.02
2023-05-06T11:42:33.625Z,11.23
2023-05-06T11:45:50.806Z,11.13
2023-05-06T11:48:53.243Z,11.18
2023-05-06T11:51:59.649Z,11.45
2023-05-06T11:55:01.976Z,11.74
2023-05-06T11:58:04.369Z,10.83
2023-05-06T12:01:06.786Z,10.93
2023-05-06T12:04:09.473Z,10.78
2023-05-06T12:07:13.784Z,11.29
2023-05-06T12:10:17.303Z,11.17
2023-05-06T12:13:20.065Z,11.10
2023-05-06T12:16:23.242Z,11.10
2023-05-06T12:19:26.725Z,10.93
2023-05-06T12:22:29.144Z,11.23
2023-05-06T12:25:31.540Z,11.49
2023-05-06T12:28:36.015Z,11.16
2023-05-06T12:31:38.299Z,11.38
2023-05-06T12:34:41.837Z,11.12
2023-05-06T12:37:44.170Z,10.87
2023-05-06T12:40:53.949Z,10.83
2023-05-06T12:43:56.410Z,10.88
2023-05-06T12:47:07.538Z,10.71
2023-05-06T12:50:10.444Z,10.28
2023-05-06T12:53:13.815Z,10.31
2023-05-06T12:56:16.193Z,10.37
2023-05-06T12:59:18.768Z,10.39
2023-05-06T13:02:21.245Z,10.48
2023-05-06T13:05:23.612Z,10.53
2023-05-06T13:08:25.989Z,10.24
2023-05-06T13:11:28.340Z,10.39
2023-05-06T13:14:30.865Z,10.33
2023-05-06T13:17:33.273Z,10.25
2023-05-06T13:20:36.288Z,10.28
2023-05-06T13:23:41.891Z,9.75
2023-05-06T13:26:44.262Z,9.91
2023-05-06T13:29:46.555Z,10.17
2023-05-06T13:32:49.030Z,10.38
2023-05-06T13:35:51.466Z,10.58
2023-05-06T13:38:54.425Z,10.63
2023-05-06T13:41:56.833Z,10.77
2023-05-06T13:44:59.144Z,10.60
2023-05-06T13:48:01.444Z,10.63
2023-05-06T13:51:04.216Z,10.82
2023-05-06T13:54:07.101Z,10.91
2023-05-06T13:57:09.498Z,11.02
2023-05-06T14:00:12.598Z,11.22
2023-05-06T14:03:15.145Z,11.49
2023-05-06T14:06:17.685Z,11.16
2023-05-06T14:09:20.126Z,11.39
2023-05-06T14:12:23.089Z,11.44
2023-05-06T14:15:25.618Z,11.39
2023-05-06T14:18:28.410Z,11.59
2023-05-06T14:21:30.852Z,11.33
2023-05-06T14:24:33.249Z,11.41
2023-05-06T14:27:35.624Z,11.28
2023-05-06T14:30:38.925Z,11.38
2023-05-06T14:33:41.309Z,11.37
2023-05-06T14:36:43.933Z,11.35
2023-05-06T14:39:46.315Z,11.27
2023-05-06T14:42:49.043Z,11.10
2023-05-06T14:45:51.538Z,11.20
2023-05-06T14:48:53.865Z,11.14
2023-05-06T14:51:57.722Z,11.25
2023-05-06T14:55:00.148Z,11.14
2023-05-06T14:58:02.694Z,11.12
2023-05-06T15:01:05.384Z,11.10
2023-05-06T15:04:12.661Z,11.17
2023-05-06T15:07:15.254Z,11.10
2023-05-06T15:10:17.681Z,11.13
2023-05-06T15:13:20.152Z,11.28
2023-05-06T15:16:22.620Z,11.28
2023-05-06T15:19:25.226Z,11.42
2023-05-06T15:22:27.631Z,11.21
2023-05-06T15:25:35.795Z,11.43
2023-05-06T15:28:39.165Z,11.45
2023-05-06T15:31:41.653Z,11.32
2023-05-06T15:34:44.234Z,11.22
2023-05-06T15:37:46.646Z,11.35
2023-05-06T15:40:52.806Z,10.98
2023-05-06T15:43:58.299Z,11.43
2023-05-06T15:47:01.024Z,11.13
2023-05-06T15:50:11.184Z,11.07
2023-05-06T15:53:23.454Z,11.31
2023-05-06T15:56:27.294Z,11.18
2023-05-06T15:59:29.741Z,11.10
2023-05-06T16:02:32.908Z,10.94
2023-05-06T16:05:35.626Z,10.97
2023-05-06T16:08:39.124Z,10.86
2023-05-06T16:11:41.750Z,10.71
2023-05-06T16:14:44.847Z,10.90
2023-05-06T16:17:47.203Z,10.66
2023-05-06T16:20:49.601Z,10.58
2023-05-06T16:23:52.064Z,10.66
2023-05-06T16:26:55.752Z,10.59
2023-05-06T16:29:58.211Z,10.50
2023-05-06T16:33:00.685Z,10.64
2023-05-06T16:36:04.039Z,10.85
2023-05-06T16:39:08.478Z,10.81
2023-05-06T16:42:10.955Z,10.76
2023-05-06T16:45:13.261Z,10.68
2023-05-06T16:48:16.626Z,10.53
2023-05-06T16:51:19.020Z,10.58
2023-05-06T16:54:21.423Z,10.56
2023-05-06T16:57:23.845Z,10.39
2023-05-06T17:00:27.239Z,10.29
2023-05-06T17:03:29.880Z,10.22
2023-05-06T17:06:33.056Z,10.13
2023-05-06T17:09:35.442Z,10.02
2023-05-06T17:12:38.228Z,10.06
2023-05-06T17:15:40.799Z,10.04
2023-05-06T17:18:43.220Z,9.92
2023-05-06T17:21:45.519Z,9.99
2023-05-06T17:24:48.214Z,10.06
2023-05-06T17:27:50.687Z,10.05
2023-05-06T17:30:53.025Z,10.04
2023-05-06T17:33:55.624Z,9.99
2023-05-06T17:36:57.929Z,9.95
2023-05-06T17:40:00.257Z,9.88
2023-05-06T17:43:02.602Z,9.84
2023-05-06T17:46:05.057Z,9.94
2023-05-06T17:49:07.484Z,9.90
2023-05-06T17:52:09.865Z,9.85
2023-05-06T17:55:17.102Z,9.95
2023-05-06T17:58:20.771Z,9.83
2023-05-06T18:01:23.306Z,9.70
2023-05-06T18:04:25.817Z,9.55
2023-05-06T18:07:28.121Z,9.45
2023-05-06T18:10:30.551Z,9.37
2023-05-06T18:13:36.704Z,9.39
2023-05-06T18:16:39.220Z,9.29
2023-05-06T18:19:41.708Z,9.24
2023-05-06T18:22:44.138Z,9.22
2023-05-06T18:25:46.484Z,9.19
2023-05-06T18:28:49.334Z,9.10
2023-05-06T18:31:51.808Z,9.00
2023-05-06T18:34:54.410Z,8.99
2023-05-06T18:37:56.789Z,8.87
2023-05-06T18:40:59.527Z,9.07
2023-05-06T18:44:04.359Z,8.96
2023-05-06T18:47:06.719Z,8.83
2023-05-06T18:50:09.430Z,8.81
2023-05-06T18:53:11.829Z,8.82
2023-05-06T18:56:14.640Z,8.74
2023-05-06T18:59:17.018Z,8.89
2023-05-06T19:02:19.462Z,8.80
2023-05-06T19:05:22.231Z,8.80
2023-05-06T19:08:24.700Z,8.84
2023-05-06T19:11:27.079Z,8.91
2023-05-06T19:14:29.387Z,9.00
2023-05-06T19:17:31.811Z,9.07
2023-05-06T19:20:35.456Z,9.02
2023-05-06T19:23:38.659Z,8.92
2023-05-06T19:26:41.344Z,9.12
2023-05-06T19:29:43.714Z,9.13
2023-05-06T19:32:46.130Z,9.09
2023-05-06T19:35:48.498Z,9.03
2023-05-06T19:38:50.923Z,9.08
2023-05-06T19:41:55.101Z,9.00
2023-05-06T19:44:57.628Z,9.04
2023-05-06T19:48:00.862Z,8.93
2023-05-06T19:51:03.937Z,8.98
2023-05-06T19:54:06.398Z,9.04
2023-05-06T19:57:08.670Z,9.13
2023-05-06T20:00:12.160Z,9.00
2023-05-06T20:03:14.716Z,9.10
2023-05-06T20:06:17.328Z,8.99
2023-05-06T20:09:19.710Z,8.94
2023-05-06T20:12:23.098Z,8.91
2023-05-06T20:15:26.796Z,8.89
2023-05-06T20:18:29.110Z,8.89
2023-05-06T20:21:31.623Z,8.78
2023-05-06T20:24:34.884Z,8.74
2023-05-06T20:27:37.588Z,8.81
2023-05-06T20:30:40.054Z,8.75
2023-05-06T20:33:42.555Z,8.58
2023-05-06T20:36:45.332Z,8.57
2023-05-06T20:39:47.755Z,8.63
2023-05-06T20:42:50.118Z,8.62
2023-05-06T20:45:52.531Z,8.64
2023-05-06T20:48:54.952Z,8.59
2023-05-06T20:51:57.527Z,8.48
2023-05-06T20:54:59.951Z,8.55
2023-05-06T20:58:02.466Z,8.51
2023-05-06T21:01:04.858Z,8.53
2023-05-06T21:04:07.388Z,8.48
2023-05-06T21:07:09.780Z,8.34
2023-05-06T21:10:12.154Z,8.31
2023-05-06T21:13:14.540Z,8.30
2023-05-06T21:16:16.956Z,8.20
2023-05-06T21:19:19.808Z,8.23
2023-05-06T21:22:25.008Z,8.19
2023-05-06T21:25:27.378Z,8.09
2023-05-06T21:28:29.718Z,8.01
2023-05-06T21:31:32.230Z,7.89
2023-05-06T21:34:35.632Z,7.86
2023-05-06T21:37:37.996Z,7.78
2023-05-06T21:40:40.491Z,7.79
2023-05-06T21:43:43.240Z,7.74
2023-05-06T21:46:45.665Z,7.43
2023-05-06T21:49:48.156Z,7.22
2023-05-06T21:52:50.570Z,7.00
2023-05-06T21:55:52.845Z,6.89
2023-05-06T21:58:55.956Z,6.93
2023-05-06T22:01:58.333Z,7.10
2023-05-06T22:05:00.683Z,7.24
2023-05-06T22:08:02.975Z,7.20
2023-05-06T22:11:05.316Z,7.11
2023-05-06T22:14:07.721Z,7.12
2023-05-06T22:17:10.754Z,7.21
2023-05-06T22:20:15.193Z,7.18
2023-05-06T22:23:19.696Z,7.26
2023-05-06T22:26:22.047Z,7.17
2023-05-06T22:29:24.435Z,7.10
2023-05-06T22:32:26.772Z,7.04
2023-05-06T22:35:29.117Z,6.98
2023-05-06T22:38:31.447Z,6.77
2023-05-06T22:41:33.685Z,6.70
2023-05-06T22:44:35.942Z,6.63
2023-05-06T22:47:38.255Z,6.63
2023-05-06T22:50:41.028Z,6.63
2023-05-06T22:53:43.789Z,6.53
2023-05-06T22:56:46.273Z,6.49
2023-05-06T22:59:48.845Z,6.33
2023-05-06T23:02:51.326Z,6.32
2023-05-06T23:05:53.753Z,6.32
2023-05-06T23:08:57.681Z,6.30
2023-05-06T23:12:00.048Z,6.21
2023-05-06T23:15:02.650Z,6.14
2023-05-06T23:18:05.390Z,6.12
2023-05-06T23:21:07.979Z,6.04
2023-05-06T23:24:10.692Z,6.05
2023-05-06T23:27:13.095Z,6.05
2023-05-06T23:30:15.739Z,5.98
2023-05-06T23:33:18.081Z,5.97
2023-05-06T23:36:20.559Z,5.92
2023-05-06T23:39:22.924Z,5.92
2023-05-06T23:42:25.971Z,5.87
2023-05-06T23:45:28.654Z,5.80
2023-05-06T23:48:30.986Z,5.80
2023-05-06T23:51:33.457Z,5.53
2023-05-06T23:54:35.844Z,5.28
2023-05-06T23:57:38.562Z,5.19
